Huvudsida
METAR-TAF:

METAR-TAF

Flygplatser :

Nice Côte d'Azur flygplats

Nice, Frankrike

latitud: 43-39N, longitud: 007-12E, höjd: 4 m

Aktuellt väderrapport

Denna rapport gjordes för 19 minuter sedan, klockan 01:30 UTC
Vind 6 kt från nord/nordväst
Temperatur 16°C
Fuktighet 51%
Tryck 1010 hPa
Sikt 10 km eller mer
Inga moln under 1 500 m eller inga cumulonimbus

METAR: LFMN 190130Z 33006KT CAVOK 16/06 Q1010 NOSIG

Tid: 03:49 (01:49 UTC)

Väderprognos

Denna rapport gjordes för 1 timme och 23 minuter sedan, klockan 00:26 UTC
Prognos gäller från 19 kl. 00 UTC till 20 kl. 03 UTC
Vind 10 kt från väst/nordväst
Sikt 10 km eller mer
Inga moln under 1 500 m eller inga cumulonimbus
Blir
från 19 kl. 08 UTC till 19 kl. 10 UTC
Vind 8 kt från syd
Blir
från 19 kl. 11 UTC till 19 kl. 13 UTC
Vind 10 kt från ost/sydost
Blir
från 19 kl. 19 UTC till 19 kl. 21 UTC
Vind 10 kt från nord/nordväst

TAF: LFMN 190026Z 1900/2003 30010KT CAVOK BECMG 1908/1910 19008KT BECMG 1911/1913 12010KT BECMG 1919/1921 34010KT

Aktuella väderrapporter och prognoser från 4000 flygplatser (METAR- och TAF-rapporter).

De tillgängliga stationerna syns som gula och röda prickar på kartan.

För musen över prickarna för att se namnen på stationerna.

Klicka sedan för att få väderrapporter och prognoser.

För att ändra kartan: Klicka på de gröna knapparna med ett svart kors på för att zooma in; den gröna knappen med ett streck på för att zooma ut; eller på de gröna pilarna för angränsande kartor.


METAR-TAF: